createdAt,value
2023-02-07T05:59:11.036Z,56.10
2023-02-07T06:01:37.504Z,56.33
2023-02-07T06:04:04.290Z,62.47
2023-02-07T06:06:31.668Z,58.53
2023-02-07T06:09:00.289Z,57.93
2023-02-07T06:11:26.820Z,60.47
2023-02-07T06:13:56.562Z,58.20
2023-02-07T06:16:24.420Z,58.87
2023-02-07T06:18:51.836Z,53.70
2023-02-07T06:21:45.298Z,58.10
2023-02-07T06:24:15.921Z,54.93
2023-02-07T06:26:45.508Z,60.47
2023-02-07T06:29:12.019Z,54.20
2023-02-07T06:31:38.718Z,50.20
2023-02-07T06:34:05.102Z,55.17
2023-02-07T06:36:31.560Z,48.93
2023-02-07T06:38:58.033Z,48.20
2023-02-07T06:41:24.540Z,55.63
2023-02-07T06:43:51.260Z,42.90
2023-02-07T06:46:17.703Z,52.63
2023-02-07T06:48:44.828Z,47.40
2023-02-07T06:51:11.640Z,51.30
2023-02-07T06:56:34.681Z,56.47
2023-02-07T06:59:01.042Z,57.90
2023-02-07T07:01:27.534Z,55.83
2023-02-07T07:03:53.953Z,69.47
2023-02-07T07:06:20.322Z,77.93
2023-02-07T07:08:46.704Z,76.70
2023-02-07T07:11:13.258Z,72.27
2023-02-07T07:13:40.067Z,86.30
2023-02-07T07:16:06.906Z,71.00
2023-02-07T07:18:44.696Z,60.40
2023-02-07T07:21:11.160Z,58.43
2023-02-07T07:23:37.571Z,40.93
2023-02-07T07:26:04.800Z,45.70
2023-02-07T07:28:31.286Z,40.27
2023-02-07T07:31:06.430Z,41.97
2023-02-07T07:33:33.211Z,39.10
2023-02-07T07:36:00.693Z,38.07
2023-02-07T07:38:27.644Z,38.93
2023-02-07T07:40:54.284Z,39.27
2023-02-07T07:43:21.294Z,36.90
2023-02-07T07:45:53.217Z,33.90
2023-02-07T07:48:20.735Z,35.30
2023-02-07T07:50:47.156Z,33.03
2023-02-07T07:53:13.858Z,32.90
2023-02-07T07:55:40.263Z,31.30
2023-02-07T07:58:06.646Z,34.43
2023-02-07T08:00:33.280Z,32.67
2023-02-07T08:02:59.702Z,33.27
2023-02-07T08:05:26.290Z,32.43
2023-02-07T08:07:52.730Z,32.40
2023-02-07T08:10:19.153Z,33.23
2023-02-07T08:12:45.522Z,37.80
2023-02-07T08:15:14.070Z,31.00
2023-02-07T08:17:40.483Z,28.97
2023-02-07T08:20:07.426Z,35.47
2023-02-07T08:22:33.925Z,29.03
2023-02-07T08:25:00.331Z,35.23
2023-02-07T08:27:26.997Z,30.60
2023-02-07T08:29:54.798Z,30.00
2023-02-07T08:32:21.447Z,31.10
2023-02-07T08:34:47.900Z,30.17
2023-02-07T08:37:14.603Z,29.00
2023-02-07T08:39:40.981Z,34.27
2023-02-07T08:42:08.313Z,33.80
2023-02-07T08:44:35.729Z,32.23
2023-02-07T08:47:02.817Z,30.10
2023-02-07T08:49:29.322Z,40.73
2023-02-07T08:51:56.021Z,29.30
2023-02-07T08:54:22.432Z,35.10
2023-02-07T08:56:49.060Z,34.57
2023-02-07T08:59:15.608Z,35.27
2023-02-07T09:01:42.108Z,32.87
2023-02-07T09:04:09.834Z,30.63
2023-02-07T09:06:36.226Z,32.87
2023-02-07T09:09:02.665Z,32.57
2023-02-07T09:11:29.319Z,33.37
2023-02-07T09:13:55.795Z,30.97
2023-02-07T09:16:23.349Z,34.93
2023-02-07T09:18:51.164Z,32.93
2023-02-07T09:21:18.741Z,32.10
2023-02-07T09:23:45.266Z,35.80
2023-02-07T09:26:19.689Z,33.50
2023-02-07T09:28:46.404Z,31.70
2023-02-07T09:31:14.416Z,32.63
2023-02-07T09:33:41.589Z,30.37
2023-02-07T09:36:24.123Z,30.03
2023-02-07T09:38:51.599Z,30.47
2023-02-07T09:41:36.460Z,28.20
2023-02-07T09:44:16.621Z,31.00
2023-02-07T09:46:52.122Z,29.20
2023-02-07T09:49:43.558Z,30.37
2023-02-07T09:52:19.836Z,29.77
2023-02-07T09:54:51.916Z,33.80
2023-02-07T09:57:27.589Z,31.13
2023-02-07T10:00:02.745Z,31.00
2023-02-07T10:02:58.216Z,31.57
2023-02-07T10:05:46.052Z,31.07
2023-02-07T10:08:14.985Z,30.40
2023-02-07T10:10:47.425Z,30.97
2023-02-07T10:13:36.935Z,29.05
2023-02-07T10:16:34.559Z,29.33
2023-02-07T10:19:29.444Z,30.08
2023-02-07T10:22:08.917Z,30.60
2023-02-07T10:24:58.294Z,28.25
2023-02-07T10:27:37.764Z,29.65
2023-02-07T10:30:24.738Z,30.47
2023-02-07T10:32:52.098Z,30.58
2023-02-07T10:35:21.692Z,29.37
2023-02-07T10:37:51.733Z,31.20
2023-02-07T10:40:54.781Z,29.10
2023-02-07T10:43:34.747Z,29.37
2023-02-07T10:46:06.757Z,28.93
2023-02-07T10:48:34.813Z,28.47
2023-02-07T10:51:04.815Z,32.73
2023-02-07T10:53:54.957Z,33.20
2023-02-07T10:56:28.067Z,30.70
2023-02-07T10:58:56.704Z,28.07
2023-02-07T11:01:25.986Z,31.63
2023-02-07T11:03:52.901Z,31.17
2023-02-07T11:06:29.255Z,31.93
2023-02-07T11:09:22.942Z,29.40
2023-02-07T11:11:53.660Z,29.23
2023-02-07T11:14:28.790Z,30.70
2023-02-07T11:16:57.377Z,32.53
2023-02-07T11:19:25.886Z,30.63
2023-02-07T11:21:58.382Z,34.43
2023-02-07T11:24:29.044Z,32.40
2023-02-07T11:27:02.877Z,34.07
2023-02-07T11:29:30.873Z,34.03
2023-02-07T11:31:59.845Z,36.17
2023-02-07T11:34:38.322Z,34.67
2023-02-07T11:37:17.167Z,37.07
2023-02-07T11:39:44.779Z,36.23
2023-02-07T11:42:14.899Z,36.83
2023-02-07T11:44:43.038Z,35.73
2023-02-07T11:47:13.809Z,33.53
2023-02-07T11:49:47.346Z,36.40
2023-02-07T11:52:14.090Z,37.93
2023-02-07T11:54:41.536Z,35.83
2023-02-07T11:57:13.219Z,33.97
2023-02-07T12:00:05.298Z,35.10
2023-02-07T12:02:32.043Z,35.00
2023-02-07T12:05:13.009Z,34.67
2023-02-07T12:07:44.129Z,31.73
2023-02-07T12:10:14.790Z,30.87
2023-02-07T12:12:48.747Z,33.20
2023-02-07T12:15:22.580Z,32.47
2023-02-07T12:18:01.635Z,31.93
2023-02-07T12:20:53.778Z,33.00
2023-02-07T12:23:43.057Z,38.33
2023-02-07T12:26:21.686Z,39.50
2023-02-07T12:29:12.392Z,36.73
2023-02-07T12:32:39.203Z,39.07
2023-02-07T12:35:20.310Z,39.27
2023-02-07T12:38:08.852Z,33.57
2023-02-07T12:40:48.534Z,37.60
2023-02-07T12:43:24.620Z,37.03
2023-02-07T12:46:00.563Z,37.37
2023-02-07T12:49:02.174Z,35.97
2023-02-07T12:52:07.313Z,38.50
2023-02-07T12:55:03.495Z,36.70
2023-02-07T12:57:53.993Z,36.77
2023-02-07T13:00:31.113Z,33.17
2023-02-07T13:03:18.493Z,32.90
2023-02-07T13:06:05.176Z,35.13
2023-02-07T13:08:57.049Z,33.83
2023-02-07T13:11:52.272Z,35.63
2023-02-07T13:14:38.554Z,33.63
2023-02-07T13:17:10.946Z,34.63
2023-02-07T13:19:49.106Z,27.00
2023-02-07T13:22:33.629Z,28.83
2023-02-07T13:25:00.894Z,31.40
2023-02-07T13:27:29.120Z,35.17
2023-02-07T13:29:56.628Z,38.03
2023-02-07T13:32:26.522Z,37.73
2023-02-07T13:35:05.766Z,38.77
2023-02-07T13:37:47.927Z,40.40
2023-02-07T13:40:20.968Z,36.93
2023-02-07T13:42:56.776Z,34.20
2023-02-07T13:45:36.106Z,32.83
2023-02-07T13:48:12.035Z,31.87
2023-02-07T13:50:43.929Z,33.00
2023-02-07T13:53:21.015Z,38.63
2023-02-07T13:55:48.450Z,34.30
2023-02-07T13:58:52.243Z,38.30
2023-02-07T14:01:23.714Z,34.50
2023-02-07T14:04:11.384Z,32.07
2023-02-07T14:06:39.633Z,43.53
2023-02-07T14:09:15.385Z,40.07
2023-02-07T14:11:44.127Z,38.77
2023-02-07T14:14:15.971Z,41.73
2023-02-07T14:16:55.054Z,44.83
2023-02-07T14:19:40.198Z,42.77
2023-02-07T14:22:35.864Z,38.87
2023-02-07T14:25:03.413Z,38.33
2023-02-07T14:27:32.936Z,52.60
2023-02-07T14:30:11.899Z,49.63
2023-02-07T14:32:46.013Z,42.90
2023-02-07T14:35:19.482Z,43.30
2023-02-07T14:37:53.696Z,46.13
2023-02-07T14:40:31.626Z,44.77
2023-02-07T14:43:05.343Z,41.07
2023-02-07T14:45:35.751Z,44.90
2023-02-07T14:48:02.680Z,42.90
2023-02-07T14:50:30.628Z,43.33
2023-02-07T14:53:01.798Z,42.67
2023-02-07T14:55:31.375Z,43.07
2023-02-07T14:58:01.424Z,43.80
2023-02-07T15:00:34.596Z,42.20
2023-02-07T15:03:05.753Z,41.57
2023-02-07T15:05:34.951Z,52.37
2023-02-07T15:08:06.164Z,47.53
2023-02-07T15:10:36.038Z,41.10
2023-02-07T15:13:03.944Z,41.17
2023-02-07T15:15:35.841Z,44.60
2023-02-07T15:18:02.646Z,41.57
2023-02-07T15:20:32.376Z,42.90
2023-02-07T15:23:01.092Z,39.20
2023-02-07T15:25:28.065Z,36.97
2023-02-07T15:28:05.606Z,42.83
2023-02-07T15:30:33.407Z,40.90
2023-02-07T15:32:59.918Z,43.33
2023-02-07T15:35:29.348Z,41.83
2023-02-07T15:38:14.864Z,42.30
2023-02-07T15:40:41.776Z,47.07
2023-02-07T15:43:23.553Z,43.57
2023-02-07T15:46:01.461Z,44.83
2023-02-07T15:48:28.309Z,42.80
2023-02-07T15:50:55.299Z,43.10
2023-02-07T15:53:24.876Z,43.93
2023-02-07T15:55:51.453Z,44.53
2023-02-07T15:58:23.337Z,46.67
2023-02-07T16:00:49.713Z,44.13
2023-02-07T16:03:23.810Z,46.10
2023-02-07T16:06:01.628Z,51.10
2023-02-07T16:08:36.531Z,50.27
2023-02-07T16:11:30.164Z,54.97
2023-02-07T16:13:59.739Z,49.63
2023-02-07T16:16:41.048Z,50.87
2023-02-07T16:19:16.688Z,47.70
2023-02-07T16:21:44.111Z,47.63
2023-02-07T16:24:22.487Z,51.60
2023-02-07T16:26:50.853Z,47.63
2023-02-07T16:29:20.094Z,53.43
2023-02-07T16:31:46.924Z,49.03
2023-02-07T16:34:15.520Z,52.20
2023-02-07T16:36:42.796Z,48.83
2023-02-07T16:39:09.766Z,52.83
2023-02-07T16:41:42.571Z,47.97
2023-02-07T16:44:16.958Z,52.40
2023-02-07T16:46:43.417Z,53.37
2023-02-07T16:49:14.722Z,51.67
2023-02-07T16:51:42.342Z,53.73
2023-02-07T16:54:08.743Z,49.67
2023-02-07T16:56:35.556Z,51.67
2023-02-07T16:59:04.243Z,48.63
2023-02-07T17:01:31.740Z,56.93
2023-02-07T17:03:59.569Z,56.37
2023-02-07T17:06:26.041Z,56.53
2023-02-07T17:08:54.557Z,59.83
2023-02-07T17:11:25.511Z,54.97
2023-02-07T17:13:53.456Z,55.63
2023-02-07T17:16:20.401Z,56.30
2023-02-07T17:18:47.390Z,55.03
2023-02-07T17:21:16.568Z,54.37
2023-02-07T17:23:45.065Z,56.87
2023-02-07T17:26:22.375Z,57.40
2023-02-07T17:28:50.192Z,60.07
2023-02-07T17:31:16.958Z,60.13
2023-02-07T17:33:43.497Z,60.93
2023-02-07T17:36:11.854Z,60.47
2023-02-07T17:38:38.482Z,62.93
2023-02-07T17:41:05.091Z,61.63
2023-02-07T17:43:31.595Z,60.57
2023-02-07T17:45:58.165Z,63.90
2023-02-07T17:48:25.397Z,65.60
2023-02-07T17:50:55.955Z,60.33
2023-02-07T17:53:23.882Z,57.40
2023-02-07T17:55:55.605Z,62.20
2023-02-07T17:58:22.132Z,63.07
2023-02-07T18:00:48.614Z,61.20
2023-02-07T18:03:17.620Z,61.47
2023-02-07T18:05:44.353Z,65.57
2023-02-07T18:08:13.457Z,63.97
2023-02-07T18:10:40.293Z,64.80
2023-02-07T18:13:06.842Z,62.77
2023-02-07T18:15:33.770Z,64.63
2023-02-07T18:18:00.454Z,67.73
2023-02-07T18:20:29.621Z,63.67
2023-02-07T18:22:57.312Z,71.27
2023-02-07T18:25:28.391Z,63.10
2023-02-07T18:27:55.250Z,64.00
2023-02-07T18:30:24.958Z,68.27
2023-02-07T18:32:51.434Z,72.20
2023-02-07T18:35:19.165Z,64.40
2023-02-07T18:37:45.570Z,72.47
2023-02-07T18:40:13.307Z,68.60
2023-02-07T18:42:40.026Z,66.83
2023-02-07T18:45:07.229Z,69.57
2023-02-07T18:47:34.229Z,74.07
2023-02-07T18:50:00.858Z,70.77
2023-02-07T18:52:30.560Z,71.00
2023-02-07T18:54:56.921Z,71.23
2023-02-07T18:57:23.346Z,75.37
2023-02-07T18:59:50.709Z,81.30
2023-02-07T19:02:17.973Z,76.40
2023-02-07T19:04:44.528Z,76.73
2023-02-07T19:07:12.066Z,74.27
2023-02-07T19:09:41.127Z,77.30
2023-02-07T19:12:09.852Z,87.80
2023-02-07T19:14:37.372Z,98.47
2023-02-07T19:17:03.874Z,80.47
2023-02-07T19:19:31.119Z,81.57
2023-02-07T19:21:57.950Z,78.77
2023-02-07T19:24:26.033Z,79.50
2023-02-07T19:26:54.785Z,76.83
2023-02-07T19:29:28.065Z,82.13
2023-02-07T19:32:06.209Z,84.17
2023-02-07T19:34:34.815Z,74.10
2023-02-07T19:37:02.361Z,75.63
2023-02-07T19:39:29.993Z,76.90
2023-02-07T19:41:56.563Z,75.97
2023-02-07T19:44:24.630Z,75.53
2023-02-07T19:46:57.193Z,75.87
2023-02-07T19:49:23.687Z,81.27
2023-02-07T19:51:51.794Z,77.67
2023-02-07T19:54:18.285Z,81.87
2023-02-07T19:56:44.717Z,86.00
2023-02-07T19:59:11.475Z,81.70
2023-02-07T20:01:38.430Z,98.20
2023-02-07T20:04:44.430Z,100.20
2023-02-07T20:07:10.963Z,84.07
2023-02-07T20:09:38.447Z,86.70
2023-02-07T20:12:07.620Z,81.70
2023-02-07T20:14:34.316Z,88.77
2023-02-07T20:17:00.782Z,90.50
2023-02-07T20:19:27.776Z,87.87
2023-02-07T20:21:56.672Z,92.73
2023-02-07T20:24:24.447Z,87.30
2023-02-07T20:26:51.260Z,94.03
2023-02-07T20:29:19.419Z,85.17
2023-02-07T20:31:48.916Z,89.60
2023-02-07T20:34:15.999Z,76.03
2023-02-07T20:36:44.202Z,82.20
2023-02-07T20:39:18.689Z,89.23
2023-02-07T20:41:46.985Z,83.87
2023-02-07T20:44:16.847Z,81.07
2023-02-07T20:46:46.542Z,84.03
2023-02-07T20:49:16.622Z,84.97
2023-02-07T20:51:44.424Z,83.20
2023-02-07T20:54:12.075Z,88.50
2023-02-07T20:56:38.586Z,96.43
2023-02-07T20:59:05.922Z,95.77
2023-02-07T21:01:35.307Z,92.40
2023-02-07T21:04:05.070Z,86.83
2023-02-07T21:06:33.014Z,86.13
2023-02-07T21:09:01.467Z,83.40
2023-02-07T21:11:31.007Z,79.97
2023-02-07T21:13:57.532Z,83.97
2023-02-07T21:16:23.974Z,80.77
2023-02-07T21:18:50.699Z,82.23
2023-02-07T21:21:17.209Z,85.47
2023-02-07T21:23:43.697Z,78.33
2023-02-07T21:26:14.369Z,83.07
2023-02-07T21:28:41.496Z,85.50
2023-02-07T21:31:10.449Z,91.33
2023-02-07T21:33:36.954Z,78.30
2023-02-07T21:36:17.810Z,88.40
2023-02-07T21:38:46.754Z,83.90
2023-02-07T21:41:14.281Z,86.47
2023-02-07T21:43:40.984Z,86.77
2023-02-07T21:46:12.567Z,89.53
2023-02-07T21:48:39.552Z,92.73
2023-02-07T21:51:08.059Z,85.50
2023-02-07T21:53:36.389Z,82.63
2023-02-07T21:56:05.609Z,94.07
2023-02-07T21:58:32.632Z,88.10
2023-02-07T22:01:18.419Z,85.57
2023-02-07T22:03:47.266Z,91.67
2023-02-07T22:06:15.445Z,91.07
2023-02-07T22:08:49.573Z,89.10
2023-02-07T22:11:17.593Z,93.17
2023-02-07T22:13:45.263Z,90.97
2023-02-07T22:16:13.314Z,94.00
2023-02-07T22:18:40.286Z,91.27
2023-02-07T22:21:09.458Z,90.23
2023-02-07T22:23:36.530Z,100.17
2023-02-07T22:26:04.360Z,103.80
2023-02-07T22:28:30.873Z,112.30
2023-02-07T22:30:57.514Z,107.33
2023-02-07T22:33:24.386Z,109.67
2023-02-07T22:35:51.528Z,108.43
2023-02-07T22:38:17.965Z,106.73
2023-02-07T22:40:44.407Z,104.80
2023-02-07T22:43:12.889Z,100.87
2023-02-07T22:45:39.890Z,103.63
2023-02-07T22:48:15.794Z,109.87
2023-02-07T22:50:43.243Z,110.23
2023-02-07T22:53:11.541Z,102.87
2023-02-07T22:55:39.961Z,106.50
2023-02-07T22:58:06.805Z,100.00
2023-02-07T23:00:33.320Z,101.23
2023-02-07T23:03:01.019Z,96.93
2023-02-07T23:05:28.634Z,104.13
2023-02-07T23:07:55.130Z,106.93
2023-02-07T23:10:21.840Z,104.73
2023-02-07T23:12:48.513Z,100.33
2023-02-07T23:15:15.150Z,98.93
2023-02-07T23:17:44.970Z,107.77
2023-02-07T23:20:11.416Z,104.13
2023-02-07T23:22:38.715Z,107.37
2023-02-07T23:25:06.612Z,106.90
2023-02-07T23:27:33.668Z,100.57
2023-02-07T23:30:00.193Z,99.23
2023-02-07T23:32:29.954Z,106.30
2023-02-07T23:34:56.327Z,100.13
2023-02-07T23:37:23.693Z,102.97
2023-02-07T23:39:50.113Z,104.53
2023-02-07T23:42:16.597Z,98.20
2023-02-07T23:44:43.024Z,103.20
2023-02-07T23:47:09.412Z,105.07
2023-02-07T23:49:36.394Z,97.87
2023-02-07T23:52:02.825Z,99.73
2023-02-07T23:54:29.302Z,100.17
2023-02-07T23:56:55.681Z,95.80
2023-02-07T23:59:22.094Z,97.63
